Time;durP1;ratioP1;P1;durP2;ratioP2;P2;SDS_P1;SDS_P2;PMS_P1;PMS_P2;Temp;Humidity;BMP_temperature;BMP_pressure;BME280_temperature;BME280_humidity;BME280_pressure;Samples;Min_cycle;Max_cycle;Signal;HPM_P1;HPM_P2
2021/03/25 00:01:00;;;;;;;26.60;14.65;;;8.10;99.90;;;;;;4833921;29;20184;-79
2021/03/25 00:03:27;;;;;;;17.50;12.48;;;8.00;99.90;;;;;;4840995;29;20216;-78
2021/03/25 00:05:54;;;;;;;18.42;13.77;;;8.00;99.90;;;;;;4841328;29;20214;-79
2021/03/25 00:08:25;;;;;;;22.45;14.23;;;7.90;99.90;;;;;;4839997;29;20231;-78
2021/03/25 00:10:52;;;;;;;23.30;14.77;;;7.90;99.90;;;;;;4841064;29;20208;-76
2021/03/25 00:13:19;;;;;;;24.92;14.20;;;7.90;99.90;;;;;;4843955;29;20634;-78
2021/03/25 00:15:46;;;;;;;20.73;14.75;;;7.80;99.90;;;;;;4843324;29;20204;-79
2021/03/25 00:18:14;;;;;;;24.77;13.85;;;7.80;99.90;;;;;;4856598;23;20227;-74
2021/03/25 00:20:41;;;;;;;18.98;13.15;;;7.80;99.90;;;;;;4846661;29;20335;-74
2021/03/25 00:23:08;;;;;;;17.80;12.73;;;7.70;99.90;;;;;;4858638;29;20310;-74
2021/03/25 00:25:37;;;;;;;18.52;12.45;;;7.70;99.90;;;;;;4844994;29;20694;-74
2021/03/25 00:28:05;;;;;;;22.90;14.15;;;7.60;99.90;;;;;;4842236;29;20231;-74
2021/03/25 00:30:33;;;;;;;18.27;12.95;;;7.60;99.90;;;;;;4858325;29;20251;-74
2021/03/25 00:33:02;;;;;;;16.25;11.52;;;7.60;99.90;;;;;;4858400;29;20754;-74
2021/03/25 00:35:29;;;;;;;20.17;13.20;;;7.50;99.90;;;;;;4857671;29;20713;-74
2021/03/25 00:37:57;;;;;;;14.43;12.07;;;7.50;99.90;;;;;;4857718;29;20319;-74
2021/03/25 00:40:36;;;;;;;16.00;11.70;;;7.50;99.90;;;;;;4859310;29;20262;-74
2021/03/25 00:43:05;;;;;;;22.63;12.15;;;7.60;99.90;;;;;;4859103;29;20617;-74
2021/03/25 00:45:40;;;;;;;17.90;13.00;;;7.70;99.90;;;;;;4863504;29;20272;-74
2021/03/25 00:48:07;;;;;;;20.65;13.60;;;7.70;99.90;;;;;;4858605;29;20993;-74
2021/03/25 00:50:46;;;;;;;18.15;12.07;;;7.70;99.90;;;;;;4859234;29;20304;-74
2021/03/25 00:53:17;;;;;;;16.70;12.95;;;7.50;99.90;;;;;;4850257;29;20222;-74
2021/03/25 00:55:44;;;;;;;16.90;12.30;;;7.40;99.90;;;;;;4858593;29;20221;-74
2021/03/25 00:58:11;;;;;;;16.77;12.93;;;7.30;99.90;;;;;;4859393;29;20214;-74
2021/03/25 01:00:41;;;;;;;21.13;12.85;;;7.30;99.90;;;;;;4843467;29;20271;-74
2021/03/25 01:03:09;;;;;;;20.00;12.45;;;7.20;99.90;;;;;;4850140;29;20231;-74
2021/03/25 01:05:36;;;;;;;20.23;12.20;;;7.10;99.90;;;;;;4858021;29;20836;-74
2021/03/25 01:08:03;;;;;;;15.70;11.35;;;7.00;99.90;;;;;;4863084;29;20227;-74
2021/03/25 01:10:45;;;;;;;18.67;12.23;;;6.90;99.90;;;;;;4861311;29;20565;-74
2021/03/25 01:13:16;;;;;;;19.20;13.80;;;6.90;99.90;;;;;;4854326;29;20234;-74
2021/03/25 01:15:44;;;;;;;18.88;11.68;;;6.80;99.90;;;;;;4842404;29;20215;-74
2021/03/25 01:18:11;;;;;;;19.95;12.57;;;6.80;99.90;;;;;;4861309;29;20222;-74
2021/03/25 01:20:42;;;;;;;21.05;13.05;;;6.70;99.90;;;;;;4861097;29;20199;-74
2021/03/25 01:23:10;;;;;;;20.25;12.18;;;6.60;99.90;;;;;;4844411;29;20589;-74
2021/03/25 01:25:38;;;;;;;15.35;11.45;;;6.60;99.90;;;;;;4862012;29;20214;-74
2021/03/25 01:28:09;;;;;;;16.45;13.35;;;6.50;99.90;;;;;;4861001;29;20581;-74
2021/03/25 01:30:38;;;;;;;16.73;11.85;;;6.50;99.90;;;;;;4861865;29;20184;-74
2021/03/25 01:33:07;;;;;;;24.63;13.52;;;6.50;99.90;;;;;;4861554;29;20601;-74
2021/03/25 01:35:36;;;;;;;20.77;13.88;;;6.50;99.90;;;;;;4861922;29;20219;-74
2021/03/25 01:38:04;;;;;;;18.48;12.75;;;6.50;99.90;;;;;;4860975;29;20215;-74
2021/03/25 01:40:32;;;;;;;19.17;12.70;;;6.50;99.90;;;;;;4845446;29;20251;-74
2021/03/25 01:43:24;;;;;;;20.67;12.00;;;6.50;99.90;;;;;;4859197;29;20227;-74
2021/03/25 01:45:57;;;;;;;21.45;14.18;;;6.50;99.90;;;;;;4861476;29;20216;-74
2021/03/25 01:48:33;;;;;;;22.33;13.10;;;6.40;99.90;;;;;;4844712;29;20223;-74
2021/03/25 01:51:07;;;;;;;24.15;12.98;;;6.40;99.90;;;;;;4857047;29;20654;-74
2021/03/25 01:53:51;;;;;;;23.75;14.20;;;6.40;99.90;;;;;;4857227;29;20227;-74
2021/03/25 01:56:54;;;;;;;25.83;15.50;;;6.40;99.90;;;;;;4846263;29;20294;-74
2021/03/25 01:59:44;;;;;;;25.83;15.35;;;6.40;99.90;;;;;;4843575;29;20226;-74
2021/03/25 02:02:16;;;;;;;27.42;16.15;;;6.30;99.90;;;;;;4842525;29;20655;-74
2021/03/25 02:05:00;;;;;;;33.55;14.48;;;6.30;99.90;;;;;;4843973;29;20223;-74
2021/03/25 02:07:51;;;;;;;23.10;13.88;;;6.40;99.90;;;;;;4850168;29;20195;-74
2021/03/25 02:10:26;;;;;;;23.00;15.93;;;6.30;99.90;;;;;;4847603;29;20196;-74
2021/03/25 02:13:32;;;;;;;28.38;17.35;;;6.20;99.90;;;;;;4862998;29;20708;-74
2021/03/25 02:16:09;;;;;;;33.15;17.15;;;6.20;99.90;;;;;;4844177;29;20211;-74
2021/03/25 02:19:37;;;;;;;21.55;13.82;;;6.20;99.90;;;;;;4859508;29;20601;-74
2021/03/25 02:22:26;;;;;;;27.63;15.43;;;6.20;99.90;;;;;;4859029;29;20191;-74
2021/03/25 02:25:20;;;;;;;24.77;15.48;;;6.20;99.90;;;;;;4859908;29;20256;-74
2021/03/25 02:28:41;;;;;;;26.23;14.73;;;6.20;99.90;;;;;;4840095;29;20220;-74
2021/03/25 02:31:29;;;;;;;25.30;16.02;;;6.10;99.90;;;;;;4837114;29;20199;-74
2021/03/25 02:34:05;;;;;;;24.58;16.20;;;6.10;99.90;;;;;;4843750;29;20246;-74
2021/03/25 02:36:57;;;;;;;25.17;15.63;;;6.10;99.90;;;;;;4860468;29;20299;-74
2021/03/25 02:39:32;;;;;;;24.67;14.35;;;6.10;99.90;;;;;;4859701;29;20219;-74
2021/03/25 02:42:18;;;;;;;27.55;17.23;;;6.10;99.90;;;;;;4859558;29;20187;-74
2021/03/25 02:44:52;;;;;;;23.02;15.48;;;6.00;99.90;;;;;;4859462;29;20219;-74
2021/03/25 02:47:20;;;;;;;27.17;14.90;;;6.00;99.90;;;;;;4860698;29;20595;-74
2021/03/25 02:50:06;;;;;;;22.95;15.60;;;6.00;99.90;;;;;;4860160;29;20566;-74
2021/03/25 02:52:43;;;;;;;25.77;15.57;;;6.10;99.90;;;;;;4843838;29;20191;-74
2021/03/25 02:55:14;;;;;;;27.25;15.45;;;6.10;99.90;;;;;;4840582;29;20220;-74
2021/03/25 02:58:05;;;;;;;25.08;15.10;;;6.10;99.90;;;;;;4839854;29;20220;-74
2021/03/25 03:00:39;;;;;;;21.23;12.82;;;6.10;99.90;;;;;;4839558;29;20634;-74
2021/03/25 03:03:10;;;;;;;19.00;13.30;;;6.00;99.90;;;;;;4859895;29;20231;-74
2021/03/25 03:06:18;;;;;;;23.00;13.55;;;5.80;99.90;;;;;;4858679;29;20309;-75
2021/03/25 03:08:55;;;;;;;26.50;14.88;;;5.80;99.90;;;;;;4842915;29;20323;-74
2021/03/25 03:11:28;;;;;;;28.52;16.13;;;5.70;99.90;;;;;;4859195;29;20673;-74
2021/03/25 03:14:01;;;;;;;24.23;15.27;;;5.70;99.90;;;;;;4864507;29;20242;-74
2021/03/25 03:16:54;;;;;;;20.50;13.20;;;5.70;99.90;;;;;;4859745;29;20207;-74
2021/03/25 03:19:33;;;;;;;22.85;15.25;;;5.80;99.90;;;;;;4853675;29;20690;-74
2021/03/25 03:22:07;;;;;;;21.90;14.88;;;5.70;99.90;;;;;;4843708;29;20392;-74
2021/03/25 03:24:46;;;;;;;24.45;14.32;;;5.70;99.90;;;;;;4859234;29;20562;-74
2021/03/25 03:27:40;;;;;;;23.27;14.60;;;5.60;99.90;;;;;;4843162;29;20199;-74
2021/03/25 03:30:21;;;;;;;23.40;16.35;;;5.70;99.90;;;;;;4857892;29;20254;-74
2021/03/25 03:33:20;;;;;;;22.65;13.82;;;5.70;99.90;;;;;;4858194;29;20231;-74
2021/03/25 03:36:02;;;;;;;20.13;13.70;;;5.80;99.90;;;;;;4859361;29;20219;-74
2021/03/25 03:38:53;;;;;;;26.88;15.07;;;5.80;99.90;;;;;;4857340;29;20223;-74
2021/03/25 03:41:31;;;;;;;24.75;15.30;;;5.80;99.90;;;;;;4859802;29;20187;-74
2021/03/25 03:44:04;;;;;;;19.60;13.68;;;5.70;99.90;;;;;;4854714;29;20232;-74
2021/03/25 03:46:36;;;;;;;21.85;14.60;;;5.70;99.90;;;;;;4853801;29;20685;-74
2021/03/25 03:49:15;;;;;;;20.73;13.20;;;5.70;99.90;;;;;;4842217;29;20230;-74
2021/03/25 03:51:53;;;;;;;19.30;13.18;;;5.70;99.90;;;;;;4857924;29;20192;-74
2021/03/25 03:54:24;;;;;;;22.92;14.15;;;5.80;99.90;;;;;;4829442;29;20310;-74
2021/03/25 03:57:26;;;;;;;22.48;14.20;;;5.80;99.90;;;;;;4859286;29;20231;-74
2021/03/25 04:00:06;;;;;;;20.45;14.70;;;5.80;99.90;;;;;;4823340;29;20625;-74
2021/03/25 04:03:02;;;;;;;25.23;14.45;;;5.90;99.90;;;;;;4858729;29;20214;-74
2021/03/25 04:05:56;;;;;;;30.50;15.18;;;5.90;99.90;;;;;;4847343;29;20219;-74
2021/03/25 04:08:50;;;;;;;27.60;16.38;;;6.10;99.90;;;;;;4856688;29;20226;-74
2021/03/25 04:11:36;;;;;;;32.60;16.80;;;6.10;99.90;;;;;;4829944;29;20201;-74
2021/03/25 04:14:18;;;;;;;31.63;17.30;;;6.30;99.90;;;;;;4864642;29;20241;-74
2021/03/25 04:17:04;;;;;;;30.67;16.95;;;6.40;99.90;;;;;;4857507;29;20310;-74
2021/03/25 04:19:40;;;;;;;37.70;19.10;;;6.40;99.90;;;;;;4858519;29;20223;-74
2021/03/25 04:22:25;;;;;;;38.67;18.10;;;6.50;99.90;;;;;;4841884;29;20191;-74
2021/03/25 04:25:07;;;;;;;32.83;17.45;;;6.60;99.90;;;;;;4858774;29;20240;-74
2021/03/25 04:27:41;;;;;;;35.80;18.45;;;6.60;99.90;;;;;;4859157;29;20202;-74
2021/03/25 04:30:14;;;;;;;35.53;20.20;;;6.70;99.90;;;;;;4865285;29;20195;-74
2021/03/25 04:32:45;;;;;;;34.55;20.13;;;6.70;99.90;;;;;;4858553;29;20599;-74
2021/03/25 04:35:12;;;;;;;32.83;18.40;;;6.70;99.90;;;;;;4859147;29;20219;-74
2021/03/25 04:37:41;;;;;;;38.28;20.35;;;6.70;99.90;;;;;;4858515;29;20298;-74
2021/03/25 04:40:16;;;;;;;35.95;18.63;;;6.80;99.90;;;;;;4867163;29;20191;-75
2021/03/25 04:42:45;;;;;;;40.50;19.88;;;6.80;99.90;;;;;;4862033;29;20294;-75
2021/03/25 04:45:23;;;;;;;39.28;22.15;;;6.90;99.90;;;;;;4862450;29;20226;-75
2021/03/25 04:47:52;;;;;;;36.22;19.95;;;6.90;99.90;;;;;;4861846;29;20229;-74
2021/03/25 04:50:36;;;;;;;36.30;20.30;;;6.90;99.90;;;;;;4862979;29;20712;-74
2021/03/25 04:53:15;;;;;;;44.65;21.85;;;7.10;99.90;;;;;;4861267;29;20298;-74
2021/03/25 04:55:43;;;;;;;43.83;22.10;;;7.10;99.90;;;;;;4862301;29;20214;-74
2021/03/25 04:58:13;;;;;;;34.60;20.40;;;7.20;99.90;;;;;;4864359;29;20607;-74
2021/03/25 05:00:41;;;;;;;33.80;20.50;;;7.20;99.90;;;;;;4866560;29;20191;-74
2021/03/25 05:03:16;;;;;;;34.67;21.30;;;7.20;99.90;;;;;;4862151;29;20230;-74
2021/03/25 05:05:43;;;;;;;36.45;22.40;;;7.20;99.90;;;;;;4845822;29;20238;-74
2021/03/25 05:08:17;;;;;;;39.70;22.27;;;7.30;99.90;;;;;;4856901;29;20803;-74
2021/03/25 05:10:46;;;;;;;42.80;23.58;;;7.30;99.90;;;;;;4858074;29;20191;-74
2021/03/25 05:13:25;;;;;;;37.63;23.40;;;7.40;99.90;;;;;;4814899;29;20215;-74
2021/03/25 05:16:15;;;;;;;48.20;25.60;;;7.40;99.90;;;;;;4860416;29;20615;-74
2021/03/25 05:19:15;;;;;;;40.17;26.05;;;7.40;99.90;;;;;;4860325;29;20619;-74
2021/03/25 05:21:53;;;;;;;45.33;25.33;;;7.40;99.90;;;;;;4834834;29;20187;-74
2021/03/25 05:24:45;;;;;;;51.90;30.92;;;7.40;99.90;;;;;;4846460;29;20244;-74
2021/03/25 05:27:31;;;;;;;42.17;28.00;;;7.40;99.90;;;;;;4860775;29;20199;-74
2021/03/25 05:30:03;;;;;;;48.67;31.15;;;7.40;99.90;;;;;;4861478;29;20230;-74
2021/03/25 05:32:35;;;;;;;55.15;30.30;;;7.50;99.90;;;;;;4862047;29;20251;-74
2021/03/25 05:35:06;;;;;;;52.58;29.73;;;7.50;99.90;;;;;;4861228;29;20239;-74
2021/03/25 05:37:33;;;;;;;58.80;33.85;;;7.40;99.90;;;;;;4843856;29;20218;-74
2021/03/25 05:40:05;;;;;;;48.92;32.60;;;7.40;99.90;;;;;;4860915;29;20611;-74
2021/03/25 05:43:13;;;;;;;56.10;34.72;;;7.40;99.90;;;;;;4845081;29;20633;-74
2021/03/25 05:45:51;;;;;;;58.80;33.88;;;7.40;99.90;;;;;;4858085;29;20626;-74
2021/03/25 05:48:42;;;;;;;50.42;31.70;;;7.50;99.90;;;;;;4853777;29;20226;-74
2021/03/25 05:51:37;;;;;;;55.03;34.83;;;7.40;99.90;;;;;;4844483;29;20561;-74
2021/03/25 05:54:37;;;;;;;47.47;31.10;;;7.50;99.90;;;;;;4852808;29;20223;-74
2021/03/25 05:57:38;;;;;;;49.20;32.25;;;7.50;99.90;;;;;;4860396;29;20390;-74
2021/03/25 06:00:26;;;;;;;59.88;34.17;;;7.50;99.90;;;;;;4866787;29;20246;-74
2021/03/25 06:03:07;;;;;;;52.60;32.58;;;7.50;99.90;;;;;;4859418;29;20238;-74
2021/03/25 06:05:34;;;;;;;48.22;32.17;;;7.50;99.90;;;;;;4860130;29;20207;-74
2021/03/25 06:08:07;;;;;;;49.70;30.75;;;7.50;99.90;;;;;;4844326;29;20701;-74
2021/03/25 06:10:42;;;;;;;49.15;31.23;;;7.60;99.90;;;;;;4860396;29;20194;-74
2021/03/25 06:13:41;;;;;;;56.42;32.88;;;7.60;99.90;;;;;;4859384;29;20313;-74
2021/03/25 06:16:35;;;;;;;53.80;33.92;;;7.60;99.90;;;;;;4861075;29;20211;-74
2021/03/25 06:19:24;;;;;;;52.13;31.75;;;7.70;99.90;;;;;;4859179;29;20601;-74
2021/03/25 06:22:13;;;;;;;56.83;31.85;;;7.80;99.90;;;;;;4859500;29;20196;-74
2021/03/25 06:25:07;;;;;;;51.60;32.30;;;7.70;99.90;;;;;;4860491;29;20593;-74
2021/03/25 06:28:01;;;;;;;51.58;31.67;;;7.80;99.90;;;;;;4847806;29;20199;-74
2021/03/25 06:30:41;;;;;;;54.85;30.73;;;7.80;99.90;;;;;;4844502;29;20204;-74
2021/03/25 06:33:17;;;;;;;44.33;30.13;;;7.80;99.90;;;;;;4858857;29;20282;-74
2021/03/25 06:35:50;;;;;;;45.50;30.38;;;7.90;99.90;;;;;;4859341;29;20672;-74
2021/03/25 06:38:37;;;;;;;52.17;32.47;;;7.90;99.90;;;;;;4865219;29;20215;-74
2021/03/25 06:41:16;;;;;;;57.28;33.22;;;7.90;99.90;;;;;;4859569;29;20251;-74
2021/03/25 06:43:57;;;;;;;46.72;33.03;;;7.90;99.90;;;;;;4866440;29;20246;-74
2021/03/25 06:46:29;;;;;;;53.60;32.55;;;8.00;99.90;;;;;;4850232;29;20211;-74
2021/03/25 06:48:59;;;;;;;46.50;30.23;;;8.00;99.90;;;;;;4859829;29;20656;-74
2021/03/25 06:51:32;;;;;;;55.95;34.15;;;8.10;99.90;;;;;;4860722;29;20195;-74
2021/03/25 06:54:09;;;;;;;52.20;32.00;;;8.10;99.90;;;;;;4867344;29;20226;-74
2021/03/25 06:56:40;;;;;;;47.97;32.20;;;8.20;99.90;;;;;;4860529;29;20203;-74
2021/03/25 06:59:18;;;;;;;51.50;32.08;;;8.20;99.90;;;;;;4854907;29;20228;-74
2021/03/25 07:01:54;;;;;;;48.20;30.27;;;8.30;99.90;;;;;;4854452;29;20258;-74
2021/03/25 07:04:26;;;;;;;47.05;31.70;;;8.40;99.90;;;;;;4840239;29;20647;-74
2021/03/25 07:06:57;;;;;;;55.05;34.85;;;8.50;99.90;;;;;;4855652;29;20204;-74
2021/03/25 07:09:31;;;;;;;59.55;34.08;;;8.40;99.90;;;;;;4843999;29;20227;-74
2021/03/25 07:12:01;;;;;;;51.72;33.40;;;8.50;99.90;;;;;;4827349;29;20207;-74
2021/03/25 07:14:40;;;;;;;47.97;34.72;;;8.50;99.90;;;;;;4854327;29;20223;-74
2021/03/25 07:17:09;;;;;;;64.93;38.08;;;8.60;99.90;;;;;;4843275;29;20586;-74
2021/03/25 07:19:39;;;;;;;54.67;34.50;;;8.70;99.90;;;;;;4859755;29;20226;-74
2021/03/25 07:22:14;;;;;;;51.72;36.72;;;8.70;99.90;;;;;;4860769;29;20187;-74
2021/03/25 07:24:41;;;;;;;56.30;33.70;;;8.80;99.90;;;;;;4859131;29;20696;-74
2021/03/25 07:27:10;;;;;;;56.13;38.42;;;8.80;99.90;;;;;;4859805;29;20195;-75
2021/03/25 07:29:39;;;;;;;53.70;35.78;;;8.90;99.90;;;;;;4854645;29;20300;-74
2021/03/25 07:32:05;;;;;;;56.78;37.05;;;9.10;99.90;;;;;;4859096;29;21589;-74
2021/03/25 07:34:44;;;;;;;62.40;37.03;;;9.10;99.90;;;;;;4842545;29;20234;-74
2021/03/25 07:37:15;;;;;;;53.75;36.05;;;9.20;99.90;;;;;;4865209;29;20224;-74
2021/03/25 07:39:44;;;;;;;53.08;36.72;;;9.20;99.90;;;;;;4845882;29;20223;-74
2021/03/25 07:42:11;;;;;;;56.75;37.50;;;9.30;99.90;;;;;;4851572;29;20189;-74
2021/03/25 07:44:41;;;;;;;57.30;37.17;;;9.30;99.90;;;;;;4859594;29;20322;-74
2021/03/25 07:47:34;;;;;;;58.88;37.90;;;9.30;99.90;;;;;;4859997;29;20248;-74
2021/03/25 07:50:21;;;;;;;53.78;37.67;;;9.40;99.90;;;;;;4859942;29;20275;-74
2021/03/25 07:52:48;;;;;;;59.83;40.72;;;9.60;99.90;;;;;;4854868;29;20219;-74
2021/03/25 07:55:31;;;;;;;65.50;41.65;;;9.60;99.90;;;;;;4850099;29;20618;-74
2021/03/25 07:57:58;;;;;;;59.08;39.70;;;9.70;99.90;;;;;;4858217;29;20709;-74
2021/03/25 08:00:30;;;;;;;62.93;39.20;;;9.90;99.90;;;;;;4859770;29;20690;-74
2021/03/25 08:03:19;;;;;;;61.50;41.27;;;10.00;99.90;;;;;;4858560;29;20533;-75
2021/03/25 08:05:49;;;;;;;60.13;38.60;;;10.00;99.90;;;;;;4857901;29;20902;-74
2021/03/25 08:08:30;;;;;;;57.63;39.33;;;10.00;99.90;;;;;;4858109;29;20914;-74
2021/03/25 08:11:21;;;;;;;65.40;39.80;;;10.20;99.90;;;;;;4858287;29;20281;-74
2021/03/25 08:13:52;;;;;;;52.97;38.30;;;10.20;99.90;;;;;;4864974;29;20556;-74
2021/03/25 08:16:25;;;;;;;61.17;37.30;;;10.30;99.90;;;;;;4858606;29;20235;-74
2021/03/25 08:19:18;;;;;;;53.93;38.03;;;10.30;99.90;;;;;;4858398;29;20849;-74
2021/03/25 08:22:26;;;;;;;62.00;38.43;;;10.20;99.90;;;;;;4825612;29;20451;-74
2021/03/25 08:25:24;;;;;;;57.80;37.77;;;10.40;99.90;;;;;;4833417;29;20459;-74
2021/03/25 08:28:30;;;;;;;54.27;37.93;;;10.50;99.90;;;;;;4856623;29;20524;-74
2021/03/25 08:31:32;;;;;;;58.33;38.83;;;10.60;99.90;;;;;;4859364;29;20440;-74
2021/03/25 08:34:34;;;;;;;55.57;38.57;;;10.80;99.90;;;;;;4801263;29;20604;-74
2021/03/25 08:37:28;;;;;;;53.60;37.80;;;11.10;99.90;;;;;;4843996;29;20972;-74
2021/03/25 08:40:20;;;;;;;53.03;36.00;;;11.10;99.90;;;;;;4843781;29;20982;-74
2021/03/25 08:42:55;;;;;;;47.63;34.43;;;11.30;99.90;;;;;;4856611;29;20487;-74
2021/03/25 08:45:24;;;;;;;53.53;36.00;;;11.30;99.90;;;;;;4836452;29;20996;-75
2021/03/25 08:47:54;;;;;;;62.53;39.30;;;11.40;99.90;;;;;;4858293;29;20467;-75
2021/03/25 08:50:29;;;;;;;51.17;38.13;;;11.70;99.90;;;;;;4857184;29;20448;-75
2021/03/25 08:53:02;;;;;;;62.17;41.00;;;12.10;99.90;;;;;;4857695;29;20471;-75
2021/03/25 08:55:50;;;;;;;46.43;36.20;;;12.50;99.90;;;;;;4857880;29;20465;-75
2021/03/25 08:58:31;;;;;;;49.60;35.80;;;12.70;99.90;;;;;;4857078;29;20540;-75
2021/03/25 09:01:09;;;;;;;42.27;33.60;;;12.70;99.90;;;;;;4859295;29;20508;-75
2021/03/25 09:04:04;;;;;;;44.90;34.00;;;12.80;99.90;;;;;;4843968;29;20472;-75
2021/03/25 09:06:37;;;;;;;38.70;28.77;;;12.80;99.90;;;;;;4839979;29;20459;-75
2021/03/25 09:09:30;;;;;;;40.50;29.10;;;12.70;99.90;;;;;;4859305;29;20483;-75
2021/03/25 09:11:58;;;;;;;41.70;27.63;;;12.70;99.30;;;;;;4842549;29;20528;-75
2021/03/25 09:14:27;;;;;;;42.73;27.80;;;12.60;99.30;;;;;;4857352;29;20478;-75
2021/03/25 09:17:12;;;;;;;43.50;29.10;;;12.70;99.30;;;;;;4841797;29;20467;-75
2021/03/25 09:19:43;;;;;;;44.47;30.73;;;12.70;99.30;;;;;;4855632;29;20483;-75
2021/03/25 09:22:41;;;;;;;49.00;32.17;;;12.70;99.60;;;;;;4857984;29;20480;-74
2021/03/25 09:25:32;;;;;;;46.57;32.00;;;12.90;99.40;;;;;;4842803;29;20524;-74
2021/03/25 09:28:07;;;;;;;41.90;28.63;;;13.20;96.30;;;;;;4860099;29;20540;-75
2021/03/25 09:30:42;;;;;;;35.63;25.97;;;13.20;96.10;;;;;;4862511;29;20424;-75
2021/03/25 09:33:42;;;;;;;40.80;27.37;;;13.20;96.10;;;;;;4845282;29;20498;-74
2021/03/25 09:36:17;;;;;;;48.73;32.50;;;13.10;96.20;;;;;;4838623;29;20577;-74
2021/03/25 09:38:59;;;;;;;37.40;24.47;;;13.00;96.50;;;;;;4834178;29;20905;-75
2021/03/25 09:41:30;;;;;;;35.63;23.83;;;12.90;96.50;;;;;;4860663;29;20444;-75
2021/03/25 09:44:05;;;;;;;37.90;24.37;;;12.80;95.80;;;;;;4860236;29;20480;-75
2021/03/25 09:46:45;;;;;;;35.37;24.20;;;12.80;95.90;;;;;;4861764;29;20446;-75
2021/03/25 09:49:40;;;;;;;34.23;25.77;;;12.80;95.80;;;;;;4860965;29;20480;-74
2021/03/25 09:52:13;;;;;;;35.53;22.57;;;13.10;95.60;;;;;;4844809;29;20443;-75
2021/03/25 09:54:41;;;;;;;32.23;22.73;;;13.30;94.80;;;;;;4860863;29;20486;-75
2021/03/25 09:57:29;;;;;;;32.23;23.60;;;13.30;94.50;;;;;;4861251;29;20469;-74
2021/03/25 10:00:00;;;;;;;29.70;22.80;;;13.40;94.70;;;;;;4859601;29;20472;-74
2021/03/25 10:02:43;;;;;;;30.33;21.80;;;13.50;94.60;;;;;;4861008;29;20933;-75
2021/03/25 10:05:24;;;;;;;32.90;22.03;;;13.70;94.20;;;;;;4861296;29;20489;-75
2021/03/25 10:07:50;;;;;;;26.57;22.20;;;14.00;94.00;;;;;;4859940;29;20470;-74
2021/03/25 10:10:23;;;;;;;37.17;23.40;;;14.20;94.50;;;;;;4860397;29;20438;-74
2021/03/25 10:13:14;;;;;;;32.40;23.27;;;14.20;92.60;;;;;;4858950;29;20996;-74
2021/03/25 10:15:55;;;;;;;36.07;24.40;;;14.20;92.90;;;;;;4857527;29;20454;-75
2021/03/25 10:18:24;;;;;;;30.93;22.80;;;14.20;91.80;;;;;;4846893;29;20534;-74
2021/03/25 10:20:54;;;;;;;33.07;24.87;;;14.30;91.20;;;;;;4860885;29;20445;-74
2021/03/25 10:23:29;;;;;;;33.37;24.40;;;14.20;91.90;;;;;;4843795;29;20481;-74
2021/03/25 10:26:27;;;;;;;31.97;22.03;;;13.90;92.50;;;;;;4859598;29;20469;-74
2021/03/25 10:29:11;;;;;;;30.30;22.97;;;13.90;93.50;;;;;;4851377;29;20504;-74
2021/03/25 10:31:40;;;;;;;28.83;20.30;;;13.90;93.60;;;;;;4848940;29;20451;-74
2021/03/25 10:34:25;;;;;;;26.67;19.47;;;14.10;91.90;;;;;;4860199;29;20815;-74
2021/03/25 10:37:02;;;;;;;27.93;20.77;;;14.10;92.10;;;;;;4865241;29;20508;-74
2021/03/25 10:39:31;;;;;;;31.77;20.30;;;14.40;90.70;;;;;;4858884;29;20521;-74
2021/03/25 10:42:22;;;;;;;32.50;21.10;;;14.40;90.00;;;;;;4860672;29;20442;-74
2021/03/25 10:44:52;;;;;;;29.10;20.23;;;14.30;90.60;;;;;;4863962;29;20485;-74
2021/03/25 10:47:22;;;;;;;23.90;20.07;;;14.20;91.20;;;;;;4860434;29;20441;-74
2021/03/25 10:49:59;;;;;;;34.70;19.60;;;14.10;91.70;;;;;;4859041;29;20478;-74
2021/03/25 10:52:40;;;;;;;28.47;20.23;;;13.90;92.10;;;;;;4860712;29;20486;-74
2021/03/25 10:55:20;;;;;;;25.23;20.77;;;13.90;92.90;;;;;;4865485;29;20481;-74
2021/03/25 10:57:49;;;;;;;26.20;20.27;;;13.90;93.70;;;;;;4859530;29;20484;-74
2021/03/25 11:00:38;;;;;;;33.03;23.60;;;14.00;92.50;;;;;;4878062;29;20805;-74
2021/03/25 11:03:19;;;;;;;26.23;19.60;;;14.10;93.00;;;;;;4878829;29;20496;-74
2021/03/25 11:05:59;;;;;;;33.50;22.90;;;14.20;91.30;;;;;;4877753;29;20469;-74
2021/03/25 11:08:36;;;;;;;30.80;22.40;;;14.40;92.10;;;;;;4862391;29;20480;-74
2021/03/25 11:11:20;;;;;;;32.03;21.87;;;14.60;89.90;;;;;;4863594;29;20595;-74
2021/03/25 11:14:04;;;;;;;28.17;20.53;;;14.60;90.30;;;;;;4839288;29;20665;-74
2021/03/25 11:16:32;;;;;;;34.20;20.80;;;14.60;90.20;;;;;;4845193;29;20438;-74
2021/03/25 11:19:11;;;;;;;33.30;21.93;;;14.70;89.20;;;;;;4857829;29;20530;-74
2021/03/25 11:21:40;;;;;;;23.47;17.90;;;14.70;88.90;;;;;;4860307;29;20466;-74
2021/03/25 11:24:26;;;;;;;24.07;18.07;;;14.80;90.60;;;;;;4876601;29;20598;-74
2021/03/25 11:26:59;;;;;;;22.87;16.97;;;15.00;89.20;;;;;;4858979;29;20662;-74
2021/03/25 11:29:31;;;;;;;23.40;16.97;;;14.90;88.90;;;;;;4854879;29;21081;-75
2021/03/25 11:32:19;;;;;;;20.30;16.77;;;14.80;90.20;;;;;;4842094;29;20925;-75
2021/03/25 11:35:22;;;;;;;20.80;16.00;;;14.80;90.70;;;;;;4959385;23;20902;-74
2021/03/25 11:37:49;;;;;;;30.57;19.80;;;14.70;90.50;;;;;;4858230;29;20468;-74
2021/03/25 11:40:22;;;;;;;23.40;17.57;;;14.70;90.20;;;;;;4861394;29;20445;-74
2021/03/25 11:43:09;;;;;;;23.00;17.07;;;14.80;91.30;;;;;;4844465;29;20473;-74
2021/03/25 11:45:45;;;;;;;21.70;14.70;;;14.80;91.10;;;;;;4842822;29;20884;-74
2021/03/25 11:48:44;;;;;;;25.23;16.83;;;14.70;91.40;;;;;;4858124;29;20470;-75
2021/03/25 11:51:17;;;;;;;27.20;15.83;;;14.90;90.10;;;;;;4812578;29;20448;-74
2021/03/25 11:53:45;;;;;;;23.20;16.47;;;14.90;91.00;;;;;;4857601;29;20507;-75
2021/03/25 11:56:29;;;;;;;19.80;16.93;;;14.90;91.30;;;;;;4842534;29;20467;-74
2021/03/25 11:59:06;;;;;;;20.90;16.60;;;14.90;90.30;;;;;;4858702;29;20481;-75
2021/03/25 12:01:34;;;;;;;21.10;17.37;;;15.00;90.70;;;;;;4858184;29;20969;-75
2021/03/25 12:04:04;;;;;;;20.53;16.83;;;15.00;90.60;;;;;;4857338;29;20562;-74
2021/03/25 12:06:34;;;;;;;23.43;16.83;;;15.10;90.40;;;;;;4857028;29;20538;-74
2021/03/25 12:09:20;;;;;;;23.47;16.53;;;15.00;90.60;;;;;;4843585;29;20848;-75
2021/03/25 12:11:48;;;;;;;21.80;15.10;;;14.90;90.10;;;;;;4859093;29;20435;-75
2021/03/25 12:14:20;;;;;;;22.07;14.87;;;14.80;90.10;;;;;;4857855;29;20495;-75
2021/03/25 12:17:09;;;;;;;16.47;13.53;;;14.90;89.20;;;;;;4842667;29;20876;-74
2021/03/25 12:19:53;;;;;;;15.10;13.27;;;14.80;90.20;;;;;;4841628;29;20538;-74
2021/03/25 12:22:22;;;;;;;16.50;13.07;;;14.80;88.90;;;;;;4857368;29;20955;-74
2021/03/25 12:24:52;;;;;;;19.63;13.90;;;14.90;86.60;;;;;;4856722;29;20519;-74
2021/03/25 12:27:25;;;;;;;24.67;15.10;;;14.90;88.80;;;;;;4854396;29;20538;-74
2021/03/25 12:29:53;;;;;;;22.90;14.97;;;14.90;88.10;;;;;;4856628;29;20534;-74
2021/03/25 12:32:23;;;;;;;20.80;15.80;;;14.80;88.10;;;;;;4858124;29;20442;-74
2021/03/25 12:35:05;;;;;;;22.80;17.03;;;14.80;88.00;;;;;;4844050;29;20473;-74
2021/03/25 12:37:35;;;;;;;19.70;14.97;;;14.70;87.20;;;;;;4837743;29;20491;-74
2021/03/25 12:40:04;;;;;;;20.97;16.43;;;14.70;90.20;;;;;;4841347;29;20529;-74
2021/03/25 12:42:31;;;;;;;18.77;13.90;;;14.70;90.10;;;;;;4856956;29;20449;-74
2021/03/25 12:44:58;;;;;;;20.00;16.10;;;14.70;88.00;;;;;;4841764;29;20487;-74
2021/03/25 12:47:25;;;;;;;20.93;15.47;;;14.50;89.20;;;;;;4842126;29;20446;-74
2021/03/25 12:49:59;;;;;;;25.13;16.60;;;14.40;90.40;;;;;;4856207;29;20434;-74
2021/03/25 12:52:27;;;;;;;20.80;16.20;;;14.30;91.40;;;;;;4851986;29;20458;-74
2021/03/25 12:54:59;;;;;;;20.00;15.40;;;14.20;91.40;;;;;;4858372;29;20567;-74
2021/03/25 12:57:28;;;;;;;25.17;17.07;;;14.20;91.40;;;;;;4857831;29;20528;-74
2021/03/25 12:59:58;;;;;;;32.47;18.27;;;14.30;91.40;;;;;;4842902;29;20449;-74
2021/03/25 13:02:27;;;;;;;20.23;16.37;;;14.40;90.00;;;;;;4859146;29;20441;-74
2021/03/25 13:04:57;;;;;;;18.07;15.73;;;14.40;88.90;;;;;;4860395;29;21038;-74
2021/03/25 13:07:26;;;;;;;19.80;15.13;;;14.30;90.90;;;;;;4860629;29;20897;-74
2021/03/25 13:09:54;;;;;;;21.90;15.87;;;14.20;91.10;;;;;;4845463;29;20982;-74
2021/03/25 13:12:27;;;;;;;27.23;16.20;;;14.20;91.80;;;;;;4862463;29;20437;-74
2021/03/25 13:14:54;;;;;;;17.77;14.23;;;14.30;90.30;;;;;;4859143;29;20508;-74
2021/03/25 13:17:22;;;;;;;17.33;14.37;;;14.40;89.50;;;;;;4861880;29;20544;-74
2021/03/25 13:20:10;;;;;;;19.47;15.13;;;14.50;90.10;;;;;;4860485;29;20457;-74
2021/03/25 13:22:37;;;;;;;21.30;14.80;;;14.50;90.00;;;;;;4860049;29;20538;-74
2021/03/25 13:25:06;;;;;;;19.30;13.40;;;14.50;90.20;;;;;;4862025;29;20467;-74
2021/03/25 13:27:33;;;;;;;17.00;14.47;;;14.70;89.40;;;;;;4844888;29;20958;-74